Terminal Aerodrome Forecast
Issued by NWS Charleston, SC

Home | Current Version | Previous Version | Text Only | Print | Product List | Glossary On
Versions: 1 2 3 4 5 6 7 8 9 10 11 12 13 14 15 16 17 18 19 20 21 22 23 24 25 26 27
000
FTUS42 KCHS 231724
TAFSAV
TAF
KSAV 231724Z 2318/2418 27015G22KT P6SM SCT025
      TEMPO 2319/2323 BKN030
     FM232300 28015G24KT P6SM SCT060
     FM240300 28013G19KT P6SM SKC=

USA.gov is the U.S. government's official web portal to all federal, state and local government web resources and services.